sensor_id;sensor_type;location;lat;lon;timestamp;P1;durP1;ratioP1;P2;durP2;ratioP2
9467;SDS011;4772;52.382;9.752;2023-08-21T00:01:36;7.83;;;3.13;;
9467;SDS011;4772;52.382;9.752;2023-08-21T00:04:02;5.63;;;3.07;;
9467;SDS011;4772;52.382;9.752;2023-08-21T00:06:28;7.23;;;3.10;;
9467;SDS011;4772;52.382;9.752;2023-08-21T00:08:55;5.30;;;3.20;;
9467;SDS011;4772;52.382;9.752;2023-08-21T00:11:21;5.13;;;2.70;;
9467;SDS011;4772;52.382;9.752;2023-08-21T00:13:47;6.10;;;3.40;;
9467;SDS011;4772;52.382;9.752;2023-08-21T00:16:14;10.00;;;3.27;;
9467;SDS011;4772;52.382;9.752;2023-08-21T00:18:41;7.60;;;2.97;;
9467;SDS011;4772;52.382;9.752;2023-08-21T00:21:07;5.93;;;2.60;;
9467;SDS011;4772;52.382;9.752;2023-08-21T00:23:33;3.63;;;2.90;;
9467;SDS011;4772;52.382;9.752;2023-08-21T00:25:59;4.47;;;2.90;;
9467;SDS011;4772;52.382;9.752;2023-08-21T00:28:25;4.47;;;2.90;;
9467;SDS011;4772;52.382;9.752;2023-08-21T00:30:51;4.57;;;3.03;;
9467;SDS011;4772;52.382;9.752;2023-08-21T00:33:17;3.50;;;2.97;;
9467;SDS011;4772;52.382;9.752;2023-08-21T00:35:43;5.97;;;3.03;;
9467;SDS011;4772;52.382;9.752;2023-08-21T00:38:09;6.17;;;3.40;;
9467;SDS011;4772;52.382;9.752;2023-08-21T00:40:39;7.47;;;3.20;;
9467;SDS011;4772;52.382;9.752;2023-08-21T00:43:04;4.77;;;3.20;;
9467;SDS011;4772;52.382;9.752;2023-08-21T00:45:31;7.37;;;3.43;;
9467;SDS011;4772;52.382;9.752;2023-08-21T00:47:57;4.53;;;3.47;;
9467;SDS011;4772;52.382;9.752;2023-08-21T00:50:23;5.60;;;3.37;;
9467;SDS011;4772;52.382;9.752;2023-08-21T00:52:49;5.40;;;3.33;;
9467;SDS011;4772;52.382;9.752;2023-08-21T00:55:15;7.20;;;3.00;;
9467;SDS011;4772;52.382;9.752;2023-08-21T00:57:42;6.23;;;3.30;;
9467;SDS011;4772;52.382;9.752;2023-08-21T01:00:09;9.27;;;3.50;;
9467;SDS011;4772;52.382;9.752;2023-08-21T01:02:35;5.67;;;3.20;;
9467;SDS011;4772;52.382;9.752;2023-08-21T01:05:01;5.37;;;3.10;;
9467;SDS011;4772;52.382;9.752;2023-08-21T01:07:29;6.40;;;3.10;;
9467;SDS011;4772;52.382;9.752;2023-08-21T01:10:00;7.73;;;3.33;;
9467;SDS011;4772;52.382;9.752;2023-08-21T01:12:39;4.20;;;3.03;;
9467;SDS011;4772;52.382;9.752;2023-08-21T01:15:13;5.23;;;3.43;;
9467;SDS011;4772;52.382;9.752;2023-08-21T01:17:39;6.37;;;3.40;;
9467;SDS011;4772;52.382;9.752;2023-08-21T01:20:06;5.90;;;3.10;;
9467;SDS011;4772;52.382;9.752;2023-08-21T01:22:39;4.33;;;3.50;;
9467;SDS011;4772;52.382;9.752;2023-08-21T01:25:06;5.70;;;3.13;;
9467;SDS011;4772;52.382;9.752;2023-08-21T01:27:35;8.03;;;3.30;;
9467;SDS011;4772;52.382;9.752;2023-08-21T01:30:02;7.87;;;3.53;;
9467;SDS011;4772;52.382;9.752;2023-08-21T01:32:34;7.03;;;3.40;;
9467;SDS011;4772;52.382;9.752;2023-08-21T01:35:01;8.20;;;3.33;;
9467;SDS011;4772;52.382;9.752;2023-08-21T01:37:27;8.73;;;3.63;;
9467;SDS011;4772;52.382;9.752;2023-08-21T01:39:53;7.67;;;3.60;;
9467;SDS011;4772;52.382;9.752;2023-08-21T01:42:19;5.80;;;3.70;;
9467;SDS011;4772;52.382;9.752;2023-08-21T01:44:46;8.40;;;3.63;;
9467;SDS011;4772;52.382;9.752;2023-08-21T01:47:12;5.33;;;3.70;;
9467;SDS011;4772;52.382;9.752;2023-08-21T01:49:38;4.90;;;3.47;;
9467;SDS011;4772;52.382;9.752;2023-08-21T01:52:04;8.70;;;3.50;;
9467;SDS011;4772;52.382;9.752;2023-08-21T01:54:30;5.83;;;3.80;;
9467;SDS011;4772;52.382;9.752;2023-08-21T01:56:56;5.20;;;3.60;;
9467;SDS011;4772;52.382;9.752;2023-08-21T01:59:22;5.47;;;3.77;;
9467;SDS011;4772;52.382;9.752;2023-08-21T02:01:49;6.93;;;3.47;;
9467;SDS011;4772;52.382;9.752;2023-08-21T02:04:15;5.60;;;3.50;;
9467;SDS011;4772;52.382;9.752;2023-08-21T02:06:41;4.90;;;3.37;;
9467;SDS011;4772;52.382;9.752;2023-08-21T02:09:09;7.63;;;3.63;;
9467;SDS011;4772;52.382;9.752;2023-08-21T02:11:35;5.60;;;3.43;;
9467;SDS011;4772;52.382;9.752;2023-08-21T02:14:01;8.60;;;4.17;;
9467;SDS011;4772;52.382;9.752;2023-08-21T02:16:27;8.53;;;4.33;;
9467;SDS011;4772;52.382;9.752;2023-08-21T02:18:54;8.47;;;3.83;;
9467;SDS011;4772;52.382;9.752;2023-08-21T02:21:20;7.63;;;3.67;;
9467;SDS011;4772;52.382;9.752;2023-08-21T02:23:46;7.27;;;3.80;;
9467;SDS011;4772;52.382;9.752;2023-08-21T02:26:12;6.83;;;3.70;;
9467;SDS011;4772;52.382;9.752;2023-08-21T02:28:38;5.33;;;3.77;;
9467;SDS011;4772;52.382;9.752;2023-08-21T02:31:04;7.10;;;3.87;;
9467;SDS011;4772;52.382;9.752;2023-08-21T02:33:31;6.50;;;3.80;;
9467;SDS011;4772;52.382;9.752;2023-08-21T02:35:57;5.27;;;3.70;;
9467;SDS011;4772;52.382;9.752;2023-08-21T02:38:23;5.53;;;3.50;;
9467;SDS011;4772;52.382;9.752;2023-08-21T02:40:49;5.10;;;3.90;;
9467;SDS011;4772;52.382;9.752;2023-08-21T02:43:15;9.83;;;3.90;;
9467;SDS011;4772;52.382;9.752;2023-08-21T02:45:41;5.03;;;3.73;;
9467;SDS011;4772;52.382;9.752;2023-08-21T02:48:07;6.00;;;3.40;;
9467;SDS011;4772;52.382;9.752;2023-08-21T02:50:33;4.93;;;3.50;;
9467;SDS011;4772;52.382;9.752;2023-08-21T02:52:59;5.53;;;3.00;;
9467;SDS011;4772;52.382;9.752;2023-08-21T02:55:25;5.33;;;3.20;;
9467;SDS011;4772;52.382;9.752;2023-08-21T02:57:51;7.60;;;3.20;;
9467;SDS011;4772;52.382;9.752;2023-08-21T03:00:17;5.20;;;2.90;;
9467;SDS011;4772;52.382;9.752;2023-08-21T03:02:43;5.83;;;2.83;;
9467;SDS011;4772;52.382;9.752;2023-08-21T03:05:10;5.53;;;3.00;;
9467;SDS011;4772;52.382;9.752;2023-08-21T03:07:36;5.50;;;2.80;;
9467;SDS011;4772;52.382;9.752;2023-08-21T03:10:02;5.70;;;2.67;;
9467;SDS011;4772;52.382;9.752;2023-08-21T03:12:28;3.63;;;2.60;;
9467;SDS011;4772;52.382;9.752;2023-08-21T03:14:54;6.40;;;2.60;;
9467;SDS011;4772;52.382;9.752;2023-08-21T03:17:20;5.37;;;2.60;;
9467;SDS011;4772;52.382;9.752;2023-08-21T03:19:46;6.23;;;2.83;;
9467;SDS011;4772;52.382;9.752;2023-08-21T03:22:12;4.77;;;2.70;;
9467;SDS011;4772;52.382;9.752;2023-08-21T03:24:38;5.30;;;3.00;;
9467;SDS011;4772;52.382;9.752;2023-08-21T03:27:04;5.27;;;3.20;;
9467;SDS011;4772;52.382;9.752;2023-08-21T03:29:30;5.63;;;2.70;;
9467;SDS011;4772;52.382;9.752;2023-08-21T03:31:57;4.33;;;2.70;;
9467;SDS011;4772;52.382;9.752;2023-08-21T03:34:23;4.80;;;2.90;;
9467;SDS011;4772;52.382;9.752;2023-08-21T03:36:49;6.13;;;3.07;;
9467;SDS011;4772;52.382;9.752;2023-08-21T03:39:15;4.03;;;3.03;;
9467;SDS011;4772;52.382;9.752;2023-08-21T03:41:41;6.77;;;3.57;;
9467;SDS011;4772;52.382;9.752;2023-08-21T03:44:07;4.50;;;3.03;;
9467;SDS011;4772;52.382;9.752;2023-08-21T03:46:33;4.77;;;3.43;;
9467;SDS011;4772;52.382;9.752;2023-08-21T03:48:59;8.03;;;3.10;;
9467;SDS011;4772;52.382;9.752;2023-08-21T03:51:25;13.67;;;3.20;;
9467;SDS011;4772;52.382;9.752;2023-08-21T03:53:51;9.13;;;3.43;;
9467;SDS011;4772;52.382;9.752;2023-08-21T03:56:17;7.33;;;3.43;;
9467;SDS011;4772;52.382;9.752;2023-08-21T03:58:44;5.97;;;3.13;;
9467;SDS011;4772;52.382;9.752;2023-08-21T04:01:10;7.20;;;3.30;;
9467;SDS011;4772;52.382;9.752;2023-08-21T04:03:36;6.30;;;3.03;;
9467;SDS011;4772;52.382;9.752;2023-08-21T04:06:02;5.70;;;3.23;;
9467;SDS011;4772;52.382;9.752;2023-08-21T04:08:28;5.67;;;3.70;;
9467;SDS011;4772;52.382;9.752;2023-08-21T04:10:54;5.40;;;3.50;;
9467;SDS011;4772;52.382;9.752;2023-08-21T04:13:24;6.17;;;3.40;;
9467;SDS011;4772;52.382;9.752;2023-08-21T04:15:53;5.63;;;3.00;;
9467;SDS011;4772;52.382;9.752;2023-08-21T04:18:19;8.37;;;3.17;;
9467;SDS011;4772;52.382;9.752;2023-08-21T04:20:47;7.30;;;3.47;;
9467;SDS011;4772;52.382;9.752;2023-08-21T04:23:13;6.93;;;3.10;;
9467;SDS011;4772;52.382;9.752;2023-08-21T04:25:39;5.63;;;3.23;;
9467;SDS011;4772;52.382;9.752;2023-08-21T04:28:05;5.23;;;3.70;;
9467;SDS011;4772;52.382;9.752;2023-08-21T04:30:32;4.70;;;3.43;;
9467;SDS011;4772;52.382;9.752;2023-08-21T04:32:59;9.43;;;3.87;;
9467;SDS011;4772;52.382;9.752;2023-08-21T04:35:25;7.80;;;3.70;;
9467;SDS011;4772;52.382;9.752;2023-08-21T04:37:51;6.40;;;3.83;;
9467;SDS011;4772;52.382;9.752;2023-08-21T04:40:17;10.93;;;3.87;;
9467;SDS011;4772;52.382;9.752;2023-08-21T04:42:46;8.23;;;3.93;;
9467;SDS011;4772;52.382;9.752;2023-08-21T04:45:12;7.90;;;3.83;;
9467;SDS011;4772;52.382;9.752;2023-08-21T04:47:38;11.00;;;4.00;;
9467;SDS011;4772;52.382;9.752;2023-08-21T04:50:05;6.63;;;3.80;;
9467;SDS011;4772;52.382;9.752;2023-08-21T04:52:31;9.47;;;4.10;;
9467;SDS011;4772;52.382;9.752;2023-08-21T04:54:57;7.33;;;3.80;;
9467;SDS011;4772;52.382;9.752;2023-08-21T04:57:23;5.70;;;3.57;;
9467;SDS011;4772;52.382;9.752;2023-08-21T04:59:49;9.30;;;4.30;;
9467;SDS011;4772;52.382;9.752;2023-08-21T05:02:15;6.97;;;3.93;;
9467;SDS011;4772;52.382;9.752;2023-08-21T05:04:41;11.10;;;4.17;;
9467;SDS011;4772;52.382;9.752;2023-08-21T05:07:07;9.33;;;4.03;;
9467;SDS011;4772;52.382;9.752;2023-08-21T05:09:33;9.97;;;4.40;;
9467;SDS011;4772;52.382;9.752;2023-08-21T05:11:59;6.20;;;3.77;;
9467;SDS011;4772;52.382;9.752;2023-08-21T05:14:25;6.27;;;3.97;;
9467;SDS011;4772;52.382;9.752;2023-08-21T05:16:51;7.93;;;4.37;;
9467;SDS011;4772;52.382;9.752;2023-08-21T05:19:17;8.57;;;4.10;;
9467;SDS011;4772;52.382;9.752;2023-08-21T05:21:44;5.20;;;3.70;;
9467;SDS011;4772;52.382;9.752;2023-08-21T05:24:10;6.07;;;3.70;;
9467;SDS011;4772;52.382;9.752;2023-08-21T05:26:36;6.43;;;3.90;;
9467;SDS011;4772;52.382;9.752;2023-08-21T05:29:02;6.10;;;4.10;;
9467;SDS011;4772;52.382;9.752;2023-08-21T05:31:28;7.20;;;4.20;;
9467;SDS011;4772;52.382;9.752;2023-08-21T05:33:54;6.30;;;3.80;;
9467;SDS011;4772;52.382;9.752;2023-08-21T05:36:23;10.73;;;4.03;;
9467;SDS011;4772;52.382;9.752;2023-08-21T05:38:49;9.23;;;4.80;;
9467;SDS011;4772;52.382;9.752;2023-08-21T05:41:17;13.73;;;4.80;;
9467;SDS011;4772;52.382;9.752;2023-08-21T05:43:43;10.90;;;4.83;;
9467;SDS011;4772;52.382;9.752;2023-08-21T05:46:10;9.73;;;4.30;;
9467;SDS011;4772;52.382;9.752;2023-08-21T05:48:36;10.80;;;4.63;;
9467;SDS011;4772;52.382;9.752;2023-08-21T05:51:02;12.00;;;5.40;;
9467;SDS011;4772;52.382;9.752;2023-08-21T05:53:29;9.70;;;4.63;;
9467;SDS011;4772;52.382;9.752;2023-08-21T05:55:55;13.67;;;5.10;;
9467;SDS011;4772;52.382;9.752;2023-08-21T05:58:24;10.10;;;4.83;;
9467;SDS011;4772;52.382;9.752;2023-08-21T06:00:55;8.70;;;4.80;;
9467;SDS011;4772;52.382;9.752;2023-08-21T06:03:21;11.33;;;4.93;;
9467;SDS011;4772;52.382;9.752;2023-08-21T06:05:47;8.57;;;5.00;;
9467;SDS011;4772;52.382;9.752;2023-08-21T06:08:13;7.63;;;4.30;;
9467;SDS011;4772;52.382;9.752;2023-08-21T06:10:39;8.07;;;4.50;;
9467;SDS011;4772;52.382;9.752;2023-08-21T06:13:05;13.33;;;4.83;;
9467;SDS011;4772;52.382;9.752;2023-08-21T06:15:31;13.67;;;5.20;;
9467;SDS011;4772;52.382;9.752;2023-08-21T06:17:58;7.20;;;4.03;;
9467;SDS011;4772;52.382;9.752;2023-08-21T06:20:25;11.50;;;4.63;;
9467;SDS011;4772;52.382;9.752;2023-08-21T06:22:51;7.03;;;4.10;;
9467;SDS011;4772;52.382;9.752;2023-08-21T06:25:20;8.13;;;3.83;;
9467;SDS011;4772;52.382;9.752;2023-08-21T06:27:53;7.40;;;4.00;;
9467;SDS011;4772;52.382;9.752;2023-08-21T06:30:26;10.00;;;4.00;;
9467;SDS011;4772;52.382;9.752;2023-08-21T06:32:52;7.63;;;3.80;;
9467;SDS011;4772;52.382;9.752;2023-08-21T06:37:58;5.87;;;3.63;;
9467;SDS011;4772;52.382;9.752;2023-08-21T06:40:24;9.87;;;3.60;;
9467;SDS011;4772;52.382;9.752;2023-08-21T06:42:50;6.40;;;3.90;;
9467;SDS011;4772;52.382;9.752;2023-08-21T06:45:17;9.73;;;4.07;;
9467;SDS011;4772;52.382;9.752;2023-08-21T06:47:43;8.27;;;3.63;;
9467;SDS011;4772;52.382;9.752;2023-08-21T06:50:10;6.88;;;3.28;;
9467;SDS011;4772;52.382;9.752;2023-08-21T06:52:36;8.43;;;3.60;;
9467;SDS011;4772;52.382;9.752;2023-08-21T06:55:02;7.90;;;3.78;;
9467;SDS011;4772;52.382;9.752;2023-08-21T06:57:28;10.68;;;3.60;;
9467;SDS011;4772;52.382;9.752;2023-08-21T06:59:54;6.47;;;3.28;;
9467;SDS011;4772;52.382;9.752;2023-08-21T07:02:20;4.00;;;2.85;;
9467;SDS011;4772;52.382;9.752;2023-08-21T07:04:46;9.48;;;3.47;;
9467;SDS011;4772;52.382;9.752;2023-08-21T07:07:12;6.40;;;3.25;;
9467;SDS011;4772;52.382;9.752;2023-08-21T07:09:38;6.53;;;2.90;;
9467;SDS011;4772;52.382;9.752;2023-08-21T07:12:04;5.18;;;2.88;;
9467;SDS011;4772;52.382;9.752;2023-08-21T07:14:30;6.55;;;2.78;;
9467;SDS011;4772;52.382;9.752;2023-08-21T07:16:56;7.93;;;3.40;;
9467;SDS011;4772;52.382;9.752;2023-08-21T07:19:22;5.47;;;2.78;;
9467;SDS011;4772;52.382;9.752;2023-08-21T07:21:48;7.15;;;3.10;;
9467;SDS011;4772;52.382;9.752;2023-08-21T07:24:14;8.35;;;3.85;;
9467;SDS011;4772;52.382;9.752;2023-08-21T07:26:40;6.03;;;2.72;;
9467;SDS011;4772;52.382;9.752;2023-08-21T07:29:06;6.53;;;3.25;;
9467;SDS011;4772;52.382;9.752;2023-08-21T07:31:32;8.02;;;3.78;;
9467;SDS011;4772;52.382;9.752;2023-08-21T07:33:59;7.40;;;3.30;;
9467;SDS011;4772;52.382;9.752;2023-08-21T07:36:25;5.65;;;3.08;;
9467;SDS011;4772;52.382;9.752;2023-08-21T07:38:51;8.18;;;3.67;;
9467;SDS011;4772;52.382;9.752;2023-08-21T07:41:17;6.60;;;3.47;;
9467;SDS011;4772;52.382;9.752;2023-08-21T07:43:43;5.75;;;3.28;;
9467;SDS011;4772;52.382;9.752;2023-08-21T07:46:10;6.00;;;3.10;;
9467;SDS011;4772;52.382;9.752;2023-08-21T07:48:39;7.93;;;3.33;;
9467;SDS011;4772;52.382;9.752;2023-08-21T07:51:05;7.40;;;3.90;;
9467;SDS011;4772;52.382;9.752;2023-08-21T07:53:31;8.07;;;3.50;;
9467;SDS011;4772;52.382;9.752;2023-08-21T07:56:00;8.52;;;3.72;;
9467;SDS011;4772;52.382;9.752;2023-08-21T07:58:28;6.93;;;3.85;;
9467;SDS011;4772;52.382;9.752;2023-08-21T08:00:55;7.43;;;3.63;;
9467;SDS011;4772;52.382;9.752;2023-08-21T08:03:21;8.88;;;3.40;;
9467;SDS011;4772;52.382;9.752;2023-08-21T08:05:47;9.80;;;3.38;;
9467;SDS011;4772;52.382;9.752;2023-08-21T08:08:13;6.82;;;2.65;;
9467;SDS011;4772;52.382;9.752;2023-08-21T08:10:40;5.97;;;2.72;;
9467;SDS011;4772;52.382;9.752;2023-08-21T08:13:06;6.32;;;2.55;;
9467;SDS011;4772;52.382;9.752;2023-08-21T08:15:33;6.03;;;2.90;;
9467;SDS011;4772;52.382;9.752;2023-08-21T08:17:59;5.63;;;2.50;;
9467;SDS011;4772;52.382;9.752;2023-08-21T08:20:25;6.45;;;2.50;;
9467;SDS011;4772;52.382;9.752;2023-08-21T08:22:51;6.68;;;2.85;;
9467;SDS011;4772;52.382;9.752;2023-08-21T08:25:17;11.30;;;7.03;;
9467;SDS011;4772;52.382;9.752;2023-08-21T08:27:44;4.72;;;2.40;;
9467;SDS011;4772;52.382;9.752;2023-08-21T08:30:10;7.78;;;3.10;;
9467;SDS011;4772;52.382;9.752;2023-08-21T08:32:36;5.57;;;2.63;;
9467;SDS011;4772;52.382;9.752;2023-08-21T08:35:02;6.80;;;2.55;;
9467;SDS011;4772;52.382;9.752;2023-08-21T08:37:28;6.55;;;2.72;;
9467;SDS011;4772;52.382;9.752;2023-08-21T08:39:54;4.63;;;2.42;;
9467;SDS011;4772;52.382;9.752;2023-08-21T08:42:20;6.22;;;2.30;;
9467;SDS011;4772;52.382;9.752;2023-08-21T08:44:46;5.15;;;2.42;;
9467;SDS011;4772;52.382;9.752;2023-08-21T08:47:13;2.95;;;1.67;;
9467;SDS011;4772;52.382;9.752;2023-08-21T08:49:39;5.20;;;2.22;;
9467;SDS011;4772;52.382;9.752;2023-08-21T08:52:05;5.13;;;2.10;;
9467;SDS011;4772;52.382;9.752;2023-08-21T08:54:31;5.97;;;2.10;;
9467;SDS011;4772;52.382;9.752;2023-08-21T08:56:58;6.78;;;2.17;;
9467;SDS011;4772;52.382;9.752;2023-08-21T08:59:24;5.22;;;2.17;;
9467;SDS011;4772;52.382;9.752;2023-08-21T09:01:50;5.07;;;2.15;;
9467;SDS011;4772;52.382;9.752;2023-08-21T09:04:16;7.50;;;2.35;;
9467;SDS011;4772;52.382;9.752;2023-08-21T09:06:43;5.35;;;2.30;;
9467;SDS011;4772;52.382;9.752;2023-08-21T09:09:09;4.68;;;2.20;;
9467;SDS011;4772;52.382;9.752;2023-08-21T09:11:35;5.55;;;2.30;;
9467;SDS011;4772;52.382;9.752;2023-08-21T09:14:02;6.05;;;1.98;;
9467;SDS011;4772;52.382;9.752;2023-08-21T09:16:28;3.88;;;2.20;;
9467;SDS011;4772;52.382;9.752;2023-08-21T09:18:55;6.30;;;2.85;;
9467;SDS011;4772;52.382;9.752;2023-08-21T09:21:24;5.57;;;2.35;;
9467;SDS011;4772;52.382;9.752;2023-08-21T09:23:59;4.53;;;2.10;;
9467;SDS011;4772;52.382;9.752;2023-08-21T09:26:25;3.63;;;2.13;;
9467;SDS011;4772;52.382;9.752;2023-08-21T09:28:52;4.63;;;2.03;;
9467;SDS011;4772;52.382;9.752;2023-08-21T09:31:22;5.90;;;1.90;;
9467;SDS011;4772;52.382;9.752;2023-08-21T09:33:55;6.55;;;2.28;;
9467;SDS011;4772;52.382;9.752;2023-08-21T09:36:22;6.80;;;2.28;;
9467;SDS011;4772;52.382;9.752;2023-08-21T09:38:50;4.45;;;1.95;;
9467;SDS011;4772;52.382;9.752;2023-08-21T09:41:19;3.85;;;2.00;;
9467;SDS011;4772;52.382;9.752;2023-08-21T09:43:46;4.35;;;2.15;;
9467;SDS011;4772;52.382;9.752;2023-08-21T09:46:15;3.95;;;2.10;;
9467;SDS011;4772;52.382;9.752;2023-08-21T09:48:41;3.33;;;2.10;;
9467;SDS011;4772;52.382;9.752;2023-08-21T09:51:09;4.53;;;1.90;;
9467;SDS011;4772;52.382;9.752;2023-08-21T09:53:36;4.22;;;1.65;;
9467;SDS011;4772;52.382;9.752;2023-08-21T09:56:02;3.78;;;1.80;;
9467;SDS011;4772;52.382;9.752;2023-08-21T09:58:29;6.18;;;2.35;;
9467;SDS011;4772;52.382;9.752;2023-08-21T10:00:58;2.83;;;1.55;;
9467;SDS011;4772;52.382;9.752;2023-08-21T10:03:24;4.55;;;1.80;;
9467;SDS011;4772;52.382;9.752;2023-08-21T10:05:51;2.90;;;1.50;;
9467;SDS011;4772;52.382;9.752;2023-08-21T10:08:18;3.55;;;1.55;;
9467;SDS011;4772;52.382;9.752;2023-08-21T10:10:45;2.47;;;1.38;;
9467;SDS011;4772;52.382;9.752;2023-08-21T10:13:11;3.47;;;1.50;;
9467;SDS011;4772;52.382;9.752;2023-08-21T10:15:37;2.17;;;1.35;;
9467;SDS011;4772;52.382;9.752;2023-08-21T10:20:45;3.65;;;1.80;;
9467;SDS011;4772;52.382;9.752;2023-08-21T10:23:12;3.63;;;1.50;;
9467;SDS011;4772;52.382;9.752;2023-08-21T10:25:49;3.95;;;1.70;;
9467;SDS011;4772;52.382;9.752;2023-08-21T10:28:19;2.28;;;1.52;;
9467;SDS011;4772;52.382;9.752;2023-08-21T10:30:45;3.78;;;1.70;;
9467;SDS011;4772;52.382;9.752;2023-08-21T10:33:11;4.90;;;1.63;;
9467;SDS011;4772;52.382;9.752;2023-08-21T10:35:37;4.13;;;1.85;;
9467;SDS011;4772;52.382;9.752;2023-08-21T10:38:07;3.60;;;1.50;;
9467;SDS011;4772;52.382;9.752;2023-08-21T10:40:36;4.90;;;1.88;;
9467;SDS011;4772;52.382;9.752;2023-08-21T10:43:03;5.07;;;1.88;;
9467;SDS011;4772;52.382;9.752;2023-08-21T10:45:29;4.75;;;1.95;;
9467;SDS011;4772;52.382;9.752;2023-08-21T10:47:58;4.68;;;1.70;;
9467;SDS011;4772;52.382;9.752;2023-08-21T10:50:25;4.60;;;1.50;;
9467;SDS011;4772;52.382;9.752;2023-08-21T10:52:52;4.20;;;1.73;;
9467;SDS011;4772;52.382;9.752;2023-08-21T10:55:18;2.38;;;1.55;;
9467;SDS011;4772;52.382;9.752;2023-08-21T10:57:46;3.95;;;1.90;;
9467;SDS011;4772;52.382;9.752;2023-08-21T11:00:13;3.53;;;1.60;;
9467;SDS011;4772;52.382;9.752;2023-08-21T11:02:43;3.63;;;1.70;;
9467;SDS011;4772;52.382;9.752;2023-08-21T11:05:10;2.72;;;1.70;;
9467;SDS011;4772;52.382;9.752;2023-08-21T11:07:41;6.68;;;1.80;;
9467;SDS011;4772;52.382;9.752;2023-08-21T11:10:10;4.28;;;1.92;;
9467;SDS011;4772;52.382;9.752;2023-08-21T11:12:36;3.75;;;1.60;;
9467;SDS011;4772;52.382;9.752;2023-08-21T11:15:02;6.53;;;1.80;;
9467;SDS011;4772;52.382;9.752;2023-08-21T11:17:29;3.00;;;1.60;;
9467;SDS011;4772;52.382;9.752;2023-08-21T11:19:55;5.88;;;2.00;;
9467;SDS011;4772;52.382;9.752;2023-08-21T11:22:25;3.70;;;1.60;;
9467;SDS011;4772;52.382;9.752;2023-08-21T11:24:53;6.03;;;2.00;;
9467;SDS011;4772;52.382;9.752;2023-08-21T11:27:20;4.35;;;1.83;;
9467;SDS011;4772;52.382;9.752;2023-08-21T11:29:50;3.38;;;1.83;;
9467;SDS011;4772;52.382;9.752;2023-08-21T11:32:17;5.30;;;1.88;;
9467;SDS011;4772;52.382;9.752;2023-08-21T11:34:48;4.50;;;1.70;;
9467;SDS011;4772;52.382;9.752;2023-08-21T11:37:15;4.78;;;3.55;;
9467;SDS011;4772;52.382;9.752;2023-08-21T11:39:46;3.33;;;1.70;;
9467;SDS011;4772;52.382;9.752;2023-08-21T11:42:13;2.67;;;1.58;;
9467;SDS011;4772;52.382;9.752;2023-08-21T11:44:40;3.78;;;1.60;;
9467;SDS011;4772;52.382;9.752;2023-08-21T11:47:06;5.07;;;2.25;;
9467;SDS011;4772;52.382;9.752;2023-08-21T11:49:32;4.68;;;2.10;;
9467;SDS011;4772;52.382;9.752;2023-08-21T11:51:58;6.00;;;1.80;;
9467;SDS011;4772;52.382;9.752;2023-08-21T11:54:24;5.45;;;1.67;;
9467;SDS011;4772;52.382;9.752;2023-08-21T11:56:50;4.35;;;1.75;;
9467;SDS011;4772;52.382;9.752;2023-08-21T11:59:22;4.57;;;1.80;;
9467;SDS011;4772;52.382;9.752;2023-08-21T12:01:51;4.93;;;1.60;;
9467;SDS011;4772;52.382;9.752;2023-08-21T12:04:17;2.58;;;1.40;;
9467;SDS011;4772;52.382;9.752;2023-08-21T12:06:44;3.78;;;1.95;;
9467;SDS011;4772;52.382;9.752;2023-08-21T12:09:10;6.88;;;2.17;;
9467;SDS011;4772;52.382;9.752;2023-08-21T12:11:36;5.75;;;2.10;;
9467;SDS011;4772;52.382;9.752;2023-08-21T12:14:03;5.47;;;1.95;;
9467;SDS011;4772;52.382;9.752;2023-08-21T12:16:29;5.68;;;1.90;;
9467;SDS011;4772;52.382;9.752;2023-08-21T12:18:55;5.45;;;1.80;;
9467;SDS011;4772;52.382;9.752;2023-08-21T12:21:23;4.20;;;1.77;;
9467;SDS011;4772;52.382;9.752;2023-08-21T12:23:49;4.90;;;2.17;;
9467;SDS011;4772;52.382;9.752;2023-08-21T12:26:15;4.28;;;1.92;;
9467;SDS011;4772;52.382;9.752;2023-08-21T12:28:45;3.90;;;1.58;;
9467;SDS011;4772;52.382;9.752;2023-08-21T12:31:11;4.07;;;1.65;;
9467;SDS011;4772;52.382;9.752;2023-08-21T12:33:38;5.72;;;1.90;;
9467;SDS011;4772;52.382;9.752;2023-08-21T12:36:04;3.45;;;1.88;;
9467;SDS011;4772;52.382;9.752;2023-08-21T12:38:30;4.03;;;2.00;;
9467;SDS011;4772;52.382;9.752;2023-08-21T12:40:57;5.85;;;2.00;;
9467;SDS011;4772;52.382;9.752;2023-08-21T12:43:23;4.78;;;1.88;;
9467;SDS011;4772;52.382;9.752;2023-08-21T12:45:50;2.78;;;1.60;;
9467;SDS011;4772;52.382;9.752;2023-08-21T12:48:16;3.75;;;1.73;;
9467;SDS011;4772;52.382;9.752;2023-08-21T12:50:42;2.63;;;1.20;;
9467;SDS011;4772;52.382;9.752;2023-08-21T12:53:08;3.13;;;1.15;;
9467;SDS011;4772;52.382;9.752;2023-08-21T12:55:34;5.63;;;1.80;;
9467;SDS011;4772;52.382;9.752;2023-08-21T12:58:01;5.43;;;2.70;;
9467;SDS011;4772;52.382;9.752;2023-08-21T13:00:27;4.22;;;1.60;;
9467;SDS011;4772;52.382;9.752;2023-08-21T13:02:53;4.45;;;1.65;;
9467;SDS011;4772;52.382;9.752;2023-08-21T13:05:19;3.40;;;1.60;;
9467;SDS011;4772;52.382;9.752;2023-08-21T13:07:45;2.88;;;1.40;;
9467;SDS011;4772;52.382;9.752;2023-08-21T13:10:11;3.90;;;1.60;;
9467;SDS011;4772;52.382;9.752;2023-08-21T13:12:37;2.67;;;1.35;;
9467;SDS011;4772;52.382;9.752;2023-08-21T13:15:03;1.88;;;1.20;;
9467;SDS011;4772;52.382;9.752;2023-08-21T13:17:32;2.78;;;1.40;;
9467;SDS011;4772;52.382;9.752;2023-08-21T13:19:58;4.65;;;1.73;;
9467;SDS011;4772;52.382;9.752;2023-08-21T13:22:24;4.40;;;1.90;;
9467;SDS011;4772;52.382;9.752;2023-08-21T13:24:50;5.60;;;2.08;;
9467;SDS011;4772;52.382;9.752;2023-08-21T13:27:16;2.28;;;1.80;;
9467;SDS011;4772;52.382;9.752;2023-08-21T13:29:42;3.58;;;1.75;;
9467;SDS011;4772;52.382;9.752;2023-08-21T13:32:08;2.28;;;1.38;;
9467;SDS011;4772;52.382;9.752;2023-08-21T13:34:35;3.28;;;1.30;;
9467;SDS011;4772;52.382;9.752;2023-08-21T13:37:01;3.42;;;1.77;;
9467;SDS011;4772;52.382;9.752;2023-08-21T13:39:29;3.58;;;1.55;;
9467;SDS011;4772;52.382;9.752;2023-08-21T13:41:55;3.38;;;1.80;;
9467;SDS011;4772;52.382;9.752;2023-08-21T13:44:21;4.65;;;1.70;;
9467;SDS011;4772;52.382;9.752;2023-08-21T13:46:47;4.32;;;1.67;;
9467;SDS011;4772;52.382;9.752;2023-08-21T13:49:13;3.38;;;1.42;;
9467;SDS011;4772;52.382;9.752;2023-08-21T13:51:39;5.47;;;1.80;;
9467;SDS011;4772;52.382;9.752;2023-08-21T13:54:05;4.32;;;1.73;;
9467;SDS011;4772;52.382;9.752;2023-08-21T13:56:31;3.15;;;1.48;;
9467;SDS011;4772;52.382;9.752;2023-08-21T13:58:57;3.20;;;1.50;;
9467;SDS011;4772;52.382;9.752;2023-08-21T14:01:23;2.38;;;1.40;;
9467;SDS011;4772;52.382;9.752;2023-08-21T14:03:49;2.88;;;1.63;;
9467;SDS011;4772;52.382;9.752;2023-08-21T14:06:15;2.22;;;1.48;;
9467;SDS011;4772;52.382;9.752;2023-08-21T14:08:41;3.63;;;1.70;;
9467;SDS011;4772;52.382;9.752;2023-08-21T14:11:08;2.65;;;1.45;;
9467;SDS011;4772;52.382;9.752;2023-08-21T14:13:33;2.60;;;1.40;;
9467;SDS011;4772;52.382;9.752;2023-08-21T14:15:59;6.25;;;1.77;;
9467;SDS011;4772;52.382;9.752;2023-08-21T14:18:25;3.22;;;1.63;;
9467;SDS011;4772;52.382;9.752;2023-08-21T14:20:51;4.00;;;2.72;;
9467;SDS011;4772;52.382;9.752;2023-08-21T14:23:17;4.05;;;1.60;;
9467;SDS011;4772;52.382;9.752;2023-08-21T14:25:43;2.80;;;1.55;;
9467;SDS011;4772;52.382;9.752;2023-08-21T14:28:09;2.90;;;1.77;;
9467;SDS011;4772;52.382;9.752;2023-08-21T14:30:35;3.03;;;1.40;;
9467;SDS011;4772;52.382;9.752;2023-08-21T14:33:01;2.45;;;1.48;;
9467;SDS011;4772;52.382;9.752;2023-08-21T14:35:27;2.13;;;1.50;;
9467;SDS011;4772;52.382;9.752;2023-08-21T14:37:53;2.10;;;1.40;;
9467;SDS011;4772;52.382;9.752;2023-08-21T14:40:19;3.50;;;1.48;;
9467;SDS011;4772;52.382;9.752;2023-08-21T14:42:45;2.40;;;1.58;;
9467;SDS011;4772;52.382;9.752;2023-08-21T14:45:11;1.73;;;1.45;;
9467;SDS011;4772;52.382;9.752;2023-08-21T14:47:37;2.97;;;1.90;;
9467;SDS011;4772;52.382;9.752;2023-08-21T14:50:04;3.47;;;2.67;;
9467;SDS011;4772;52.382;9.752;2023-08-21T14:52:30;1.75;;;1.40;;
9467;SDS011;4772;52.382;9.752;2023-08-21T14:54:56;3.50;;;1.63;;
9467;SDS011;4772;52.382;9.752;2023-08-21T14:57:22;3.70;;;1.55;;
9467;SDS011;4772;52.382;9.752;2023-08-21T14:59:49;1.88;;;1.17;;
9467;SDS011;4772;52.382;9.752;2023-08-21T15:02:15;3.95;;;1.50;;
9467;SDS011;4772;52.382;9.752;2023-08-21T15:04:41;1.85;;;1.20;;
9467;SDS011;4772;52.382;9.752;2023-08-21T15:07:07;2.20;;;1.20;;
9467;SDS011;4772;52.382;9.752;2023-08-21T15:09:33;4.75;;;1.70;;
9467;SDS011;4772;52.382;9.752;2023-08-21T15:12:00;2.08;;;1.50;;
9467;SDS011;4772;52.382;9.752;2023-08-21T15:14:26;2.50;;;1.50;;
9467;SDS011;4772;52.382;9.752;2023-08-21T15:16:55;2.05;;;1.40;;